createdAt,value
2018-04-22T00:01:13.958Z,23.97
2018-04-22T00:03:42.304Z,24.23
2018-04-22T00:06:11.283Z,24.80
2018-04-22T00:08:39.677Z,26.00
2018-04-22T00:11:07.895Z,27.13
2018-04-22T00:13:36.288Z,28.77
2018-04-22T00:16:04.569Z,31.63
2018-04-22T00:18:32.800Z,31.77
2018-04-22T00:21:01.020Z,29.87
2018-04-22T00:23:29.259Z,31.33
2018-04-22T00:25:57.580Z,32.23
2018-04-22T00:28:26.024Z,29.77
2018-04-22T00:30:54.418Z,30.40
2018-04-22T00:33:22.613Z,30.60
2018-04-22T00:35:50.853Z,32.27
2018-04-22T00:38:19.249Z,31.30
2018-04-22T00:40:47.512Z,29.50
2018-04-22T00:43:15.867Z,31.63
2018-04-22T00:45:44.200Z,33.47
2018-04-22T00:48:12.503Z,30.87
2018-04-22T00:50:40.765Z,28.20
2018-04-22T00:53:09.101Z,32.80
2018-04-22T00:55:37.355Z,31.07
2018-04-22T00:58:06.241Z,32.07
2018-04-22T01:00:34.954Z,30.23
2018-04-22T01:03:03.269Z,32.07
2018-04-22T01:05:31.536Z,31.60
2018-04-22T01:07:59.820Z,33.27
2018-04-22T01:10:28.040Z,32.83
2018-04-22T01:12:56.275Z,31.33
2018-04-22T01:15:24.507Z,32.33
2018-04-22T01:17:52.793Z,33.00
2018-04-22T01:20:21.006Z,29.77
2018-04-22T01:22:49.669Z,28.40
2018-04-22T01:25:18.166Z,30.30
2018-04-22T01:27:46.507Z,29.37
2018-04-22T01:30:15.759Z,28.83
2018-04-22T01:32:44.396Z,30.70
2018-04-22T01:35:12.648Z,31.30
2018-04-22T01:37:41.755Z,30.40
2018-04-22T01:40:10.006Z,27.60
2018-04-22T01:42:38.224Z,30.47
2018-04-22T01:45:06.550Z,28.90
2018-04-22T01:47:35.668Z,32.37
2018-04-22T01:50:03.866Z,31.10
2018-04-22T01:52:32.115Z,29.63
2018-04-22T01:55:01.131Z,30.23
2018-04-22T01:57:29.512Z,32.20
2018-04-22T02:00:00.257Z,30.63
2018-04-22T02:02:28.643Z,29.17
2018-04-22T02:04:56.980Z,29.80
2018-04-22T02:07:25.304Z,25.90
2018-04-22T02:09:53.540Z,27.97
2018-04-22T02:12:21.803Z,27.40
2018-04-22T02:14:50.103Z,30.93
2018-04-22T02:17:19.068Z,27.60
2018-04-22T02:19:47.375Z,26.37
2018-04-22T02:22:15.592Z,27.57
2018-04-22T02:24:43.913Z,30.60
2018-04-22T02:27:12.348Z,30.83
2018-04-22T02:29:40.652Z,30.30
2018-04-22T02:32:08.981Z,30.73
2018-04-22T02:34:37.205Z,30.83
2018-04-22T02:37:06.260Z,30.10
2018-04-22T02:39:34.532Z,31.50
2018-04-22T02:42:02.769Z,32.67
2018-04-22T02:44:31.896Z,31.57
2018-04-22T02:47:00.152Z,29.80
2018-04-22T02:49:28.480Z,31.40
2018-04-22T02:51:56.783Z,31.40
2018-04-22T02:54:25.797Z,29.40
2018-04-22T02:56:54.875Z,31.00
2018-04-22T02:59:23.076Z,33.13
2018-04-22T03:01:53.869Z,32.47
2018-04-22T03:04:22.094Z,31.20
2018-04-22T03:06:50.321Z,33.90
2018-04-22T03:09:18.623Z,34.47
2018-04-22T03:11:47.798Z,31.60
2018-04-22T03:14:16.215Z,31.53
2018-04-22T03:16:44.647Z,31.90
2018-04-22T03:19:12.871Z,32.37
2018-04-22T03:21:41.204Z,33.10
2018-04-22T03:24:09.416Z,32.87
2018-04-22T03:26:37.692Z,31.67
2018-04-22T03:29:06.858Z,33.17
2018-04-22T03:31:35.207Z,32.63
2018-04-22T03:34:05.837Z,32.97
2018-04-22T03:36:34.137Z,31.37
2018-04-22T03:39:03.099Z,32.17
2018-04-22T03:41:31.376Z,31.10
2018-04-22T03:43:59.749Z,31.97
2018-04-22T03:46:28.101Z,31.50
2018-04-22T03:48:57.203Z,31.47
2018-04-22T03:51:25.433Z,30.50
2018-04-22T03:53:53.743Z,28.23
2018-04-22T03:56:21.968Z,33.27
2018-04-22T03:58:50.261Z,31.37
2018-04-22T04:01:18.716Z,28.83
2018-04-22T04:03:46.960Z,31.33
2018-04-22T04:06:15.250Z,27.70
2018-04-22T04:08:43.623Z,30.20
2018-04-22T04:11:11.845Z,27.40
2018-04-22T04:13:40.080Z,29.53
2018-04-22T04:16:08.295Z,31.60
2018-04-22T04:19:11.097Z,32.20
2018-04-22T04:21:51.040Z,31.33
2018-04-22T04:24:40.167Z,27.87
2018-04-22T04:27:31.047Z,29.37
2018-04-22T04:30:00.049Z,29.53
2018-04-22T04:32:29.087Z,28.73
2018-04-22T04:34:57.377Z,34.53
2018-04-22T04:37:25.640Z,33.73
2018-04-22T04:39:54.340Z,36.30
2018-04-22T04:42:22.554Z,32.83
2018-04-22T04:44:50.899Z,37.10
2018-04-22T04:47:19.187Z,35.60
2018-04-22T04:49:47.548Z,35.97
2018-04-22T04:52:15.772Z,33.23
2018-04-22T04:54:44.056Z,39.30
2018-04-22T04:57:13.081Z,39.63
2018-04-22T04:59:41.384Z,42.70
2018-04-22T05:02:09.644Z,39.50
2018-04-22T05:04:37.851Z,41.80
2018-04-22T05:07:06.155Z,36.43
2018-04-22T05:09:34.595Z,35.83
2018-04-22T05:12:02.937Z,41.10
2018-04-22T05:14:31.232Z,40.10
2018-04-22T05:16:59.700Z,39.40
2018-04-22T05:19:27.904Z,40.77
2018-04-22T05:21:56.177Z,41.50
2018-04-22T05:24:24.441Z,38.87
2018-04-22T05:26:52.622Z,34.73
2018-04-22T05:29:20.939Z,33.20
2018-04-22T05:31:49.151Z,33.43
2018-04-22T05:34:17.407Z,32.53
2018-04-22T05:36:45.703Z,30.80
2018-04-22T05:39:13.972Z,31.13
2018-04-22T05:41:42.240Z,32.50
2018-04-22T05:44:11.475Z,34.13
2018-04-22T05:46:39.643Z,34.63
2018-04-22T05:49:07.928Z,33.17
2018-04-22T05:51:36.173Z,32.73
2018-04-22T05:54:04.512Z,33.57
2018-04-22T05:56:32.743Z,33.23
2018-04-22T05:59:01.184Z,33.30
2018-04-22T06:01:29.592Z,32.17
2018-04-22T06:03:58.100Z,32.80
2018-04-22T06:06:26.450Z,33.83
2018-04-22T06:08:54.725Z,32.77
2018-04-22T06:11:23.759Z,33.90
2018-04-22T06:13:52.074Z,36.70
2018-04-22T06:16:21.045Z,34.00
2018-04-22T06:18:50.118Z,35.80
2018-04-22T06:21:18.505Z,31.90
2018-04-22T06:23:46.753Z,31.77
2018-04-22T06:26:15.036Z,34.30
2018-04-22T06:28:43.363Z,35.57
2018-04-22T06:31:11.779Z,34.73
2018-04-22T06:33:40.042Z,34.80
2018-04-22T06:36:08.405Z,32.60
2018-04-22T06:38:36.732Z,33.00
2018-04-22T06:41:05.024Z,32.73
2018-04-22T06:43:33.352Z,30.93
2018-04-22T06:46:01.600Z,32.27
2018-04-22T06:48:30.591Z,31.17
2018-04-22T06:50:59.634Z,30.53
2018-04-22T06:53:27.857Z,29.60
2018-04-22T06:55:56.120Z,29.83
2018-04-22T06:58:24.441Z,28.50
2018-04-22T07:00:52.690Z,28.33
2018-04-22T07:03:21.731Z,27.17
2018-04-22T07:05:50.050Z,29.00
2018-04-22T07:10:52.897Z,29.37
2018-04-22T07:13:21.155Z,25.10
2018-04-22T07:15:49.388Z,24.90
2018-04-22T07:18:17.644Z,25.03
2018-04-22T07:20:45.937Z,25.97
2018-04-22T07:23:14.293Z,26.37
2018-04-22T07:25:42.557Z,20.93
2018-04-22T07:28:10.805Z,22.00
2018-04-22T07:30:39.765Z,20.53
2018-04-22T07:33:08.056Z,23.13
2018-04-22T07:35:36.283Z,23.73
2018-04-22T07:38:04.508Z,18.93
2018-04-22T07:40:32.832Z,21.23
2018-04-22T07:43:01.169Z,17.83
2018-04-22T07:45:29.609Z,16.47
2018-04-22T07:47:57.984Z,15.90
2018-04-22T07:50:26.271Z,15.87
2018-04-22T07:52:54.536Z,14.50
2018-04-22T07:55:25.388Z,19.70
2018-04-22T07:57:53.620Z,16.43
2018-04-22T08:00:21.902Z,14.80
2018-04-22T08:02:50.194Z,17.57
2018-04-22T08:05:18.518Z,14.87
2018-04-22T08:07:46.820Z,14.30
2018-04-22T08:10:16.732Z,15.87
2018-04-22T08:12:44.088Z,13.87
2018-04-22T08:15:12.396Z,13.30
2018-04-22T08:17:40.715Z,12.70
2018-04-22T08:20:08.995Z,13.23
2018-04-22T08:22:37.227Z,13.83
2018-04-22T08:25:05.497Z,11.07
2018-04-22T08:27:33.852Z,11.67
2018-04-22T08:30:02.827Z,13.20
2018-04-22T08:32:31.952Z,15.90
2018-04-22T08:35:01.091Z,12.93
2018-04-22T08:37:29.293Z,10.17
2018-04-22T08:39:58.331Z,14.60
2018-04-22T08:42:28.599Z,14.10
2018-04-22T08:44:56.847Z,13.17
2018-04-22T08:47:25.115Z,12.87
2018-04-22T08:49:53.371Z,18.50
2018-04-22T08:52:21.606Z,13.53
2018-04-22T08:54:50.280Z,15.13
2018-04-22T08:57:18.692Z,12.03
2018-04-22T08:59:47.016Z,11.97
2018-04-22T09:02:15.265Z,13.67
2018-04-22T09:04:43.604Z,12.50
2018-04-22T09:07:11.815Z,12.63
2018-04-22T09:09:40.124Z,13.50
2018-04-22T09:12:08.387Z,14.00
2018-04-22T09:14:36.683Z,12.10
2018-04-22T09:17:04.947Z,12.40
2018-04-22T09:19:33.218Z,13.93
2018-04-22T09:22:01.803Z,13.63
2018-04-22T09:24:30.044Z,13.07
2018-04-22T09:26:58.323Z,12.83
2018-04-22T09:29:26.627Z,12.80
2018-04-22T09:31:54.907Z,14.07
2018-04-22T09:34:23.143Z,12.20
2018-04-22T09:36:51.423Z,12.53
2018-04-22T09:39:19.729Z,12.43
2018-04-22T09:41:47.999Z,13.20
2018-04-22T09:44:16.279Z,12.77
2018-04-22T09:46:44.647Z,12.90
2018-04-22T09:49:13.719Z,11.87
2018-04-22T09:51:41.922Z,11.70
2018-04-22T09:54:10.212Z,12.57
2018-04-22T09:56:38.453Z,10.80
2018-04-22T09:59:06.730Z,10.27
2018-04-22T10:01:36.884Z,10.97
2018-04-22T10:04:11.013Z,12.97
2018-04-22T10:06:39.385Z,10.27
2018-04-22T10:09:07.608Z,9.97
2018-04-22T10:11:35.936Z,9.30
2018-04-22T10:14:04.263Z,10.37
2018-04-22T10:16:32.512Z,9.60
2018-04-22T10:19:01.555Z,11.77
2018-04-22T10:21:30.549Z,10.00
2018-04-22T10:23:58.824Z,9.10
2018-04-22T10:26:27.848Z,11.73
2018-04-22T10:28:58.777Z,10.17
2018-04-22T10:31:27.840Z,9.00
2018-04-22T10:33:56.936Z,10.50
2018-04-22T10:36:25.931Z,9.67
2018-04-22T10:38:54.299Z,8.17
2018-04-22T10:41:22.576Z,7.80
2018-04-22T10:43:51.573Z,9.67
2018-04-22T10:46:19.893Z,7.47
2018-04-22T10:48:48.782Z,10.37
2018-04-22T10:51:17.323Z,11.47
2018-04-22T10:53:45.590Z,8.37
2018-04-22T10:56:14.069Z,6.83
2018-04-22T10:58:42.287Z,8.13
2018-04-22T11:01:10.543Z,6.23
2018-04-22T11:03:39.539Z,5.60
2018-04-22T11:06:08.531Z,8.13
2018-04-22T11:08:37.535Z,7.20
2018-04-22T11:11:06.673Z,6.27
2018-04-22T11:13:34.967Z,11.63
2018-04-22T11:16:03.243Z,7.17
2018-04-22T11:18:31.563Z,8.77
2018-04-22T11:21:00.637Z,8.93
2018-04-22T11:23:29.258Z,10.23
2018-04-22T11:25:57.492Z,9.33
2018-04-22T11:28:25.717Z,8.27
2018-04-22T11:30:54.059Z,8.47
2018-04-22T11:33:22.786Z,7.47
2018-04-22T11:35:52.871Z,5.70
2018-04-22T11:38:21.600Z,9.40
2018-04-22T11:40:50.835Z,9.27
2018-04-22T11:43:20.665Z,10.70
2018-04-22T11:45:48.932Z,7.93
2018-04-22T11:48:17.265Z,9.17
2018-04-22T11:50:46.277Z,8.93
2018-04-22T11:53:14.526Z,9.00
2018-04-22T11:55:42.775Z,8.73
2018-04-22T11:58:11.022Z,10.37
2018-04-22T12:00:39.396Z,8.20
2018-04-22T12:03:07.591Z,9.33
2018-04-22T12:05:35.896Z,8.27
2018-04-22T12:08:05.040Z,8.03
2018-04-22T12:10:33.339Z,9.57
2018-04-22T12:13:01.795Z,10.13
2018-04-22T12:15:30.186Z,12.10
2018-04-22T12:17:58.485Z,6.67
2018-04-22T12:20:29.385Z,7.13
2018-04-22T12:22:58.232Z,9.63
2018-04-22T12:25:26.716Z,7.20
2018-04-22T12:27:55.061Z,7.50
2018-04-22T12:30:23.347Z,8.63
2018-04-22T12:32:51.764Z,6.37
2018-04-22T12:35:20.071Z,7.20
2018-04-22T12:37:48.267Z,5.60
2018-04-22T12:40:16.733Z,5.63
2018-04-22T12:42:47.479Z,9.03
2018-04-22T12:45:15.676Z,5.13
2018-04-22T12:47:43.868Z,8.30
2018-04-22T12:50:12.112Z,8.17
2018-04-22T12:52:40.358Z,5.83
2018-04-22T12:55:08.707Z,6.17
2018-04-22T12:57:37.989Z,7.57
2018-04-22T13:00:07.465Z,7.17
2018-04-22T13:02:35.711Z,5.50
2018-04-22T13:05:05.233Z,7.63
2018-04-22T13:07:33.944Z,5.70
2018-04-22T13:10:03.248Z,6.90
2018-04-22T13:12:31.702Z,9.27
2018-04-22T13:15:00.028Z,6.63
2018-04-22T13:17:28.518Z,6.97
2018-04-22T13:19:57.815Z,4.57
2018-04-22T13:22:27.222Z,6.47
2018-04-22T13:24:55.555Z,7.70
2018-04-22T13:27:23.956Z,7.93
2018-04-22T13:29:53.623Z,6.90
2018-04-22T13:32:22.030Z,6.70
2018-04-22T13:34:50.367Z,5.17
2018-04-22T13:37:18.855Z,6.10
2018-04-22T13:39:47.053Z,5.18
2018-04-22T13:42:15.355Z,4.57
2018-04-22T13:44:43.595Z,8.13
2018-04-22T13:47:11.862Z,6.20
2018-04-22T13:49:40.087Z,6.20
2018-04-22T13:52:08.454Z,5.80
2018-04-22T13:54:36.721Z,3.93
2018-04-22T13:57:04.976Z,6.30
2018-04-22T13:59:33.369Z,8.37
2018-04-22T14:02:01.633Z,6.53
2018-04-22T14:04:31.108Z,4.17
2018-04-22T14:07:00.107Z,4.90
2018-04-22T14:09:28.344Z,4.67
2018-04-22T14:11:56.858Z,4.63
2018-04-22T14:14:25.045Z,5.50
2018-04-22T14:16:53.305Z,4.93
2018-04-22T14:19:22.348Z,7.87
2018-04-22T14:21:50.624Z,4.05
2018-04-22T14:24:18.902Z,3.87
2018-04-22T14:26:47.420Z,5.82
2018-04-22T14:29:15.677Z,7.68
2018-04-22T14:31:43.948Z,2.62
2018-04-22T14:34:13.054Z,6.45
2018-04-22T14:36:41.377Z,5.47
2018-04-22T14:39:09.647Z,4.72
2018-04-22T14:41:38.730Z,7.05
2018-04-22T14:44:19.427Z,4.60
2018-04-22T14:46:47.807Z,7.43
2018-04-22T14:49:16.067Z,4.85
2018-04-22T14:51:44.392Z,4.73
2018-04-22T14:54:12.788Z,5.67
2018-04-22T14:56:41.157Z,5.43
2018-04-22T14:59:09.378Z,6.57
2018-04-22T15:01:37.614Z,5.47
2018-04-22T15:04:05.863Z,5.97
2018-04-22T15:06:35.446Z,3.97
2018-04-22T15:09:03.766Z,8.70
2018-04-22T15:11:32.163Z,5.77
2018-04-22T15:14:00.397Z,4.63
2018-04-22T15:16:28.641Z,5.60
2018-04-22T15:18:57.976Z,5.63
2018-04-22T15:21:26.208Z,5.27
2018-04-22T15:23:54.538Z,5.90
2018-04-22T15:26:22.836Z,3.67
2018-04-22T15:28:51.149Z,8.50
2018-04-22T15:31:21.375Z,5.20
2018-04-22T15:33:49.585Z,4.37
2018-04-22T15:36:17.830Z,8.03
2018-04-22T15:38:46.101Z,6.30
2018-04-22T15:41:15.072Z,5.70
2018-04-22T15:43:43.324Z,4.47
2018-04-22T15:46:11.622Z,4.10
2018-04-22T15:48:39.824Z,3.67
2018-04-22T15:51:08.852Z,4.80
2018-04-22T15:53:37.098Z,5.47
2018-04-22T15:56:06.088Z,6.03
2018-04-22T15:58:34.382Z,4.33
2018-04-22T16:01:02.713Z,5.90
2018-04-22T16:03:30.933Z,4.90
2018-04-22T16:05:59.496Z,6.17
2018-04-22T16:08:27.692Z,6.93
2018-04-22T16:10:57.381Z,6.77
2018-04-22T16:13:25.630Z,4.87
2018-04-22T16:15:53.935Z,8.03
2018-04-22T16:18:22.213Z,6.80
2018-04-22T16:20:50.387Z,6.30
2018-04-22T16:23:19.447Z,7.60
2018-04-22T16:25:47.723Z,5.77
2018-04-22T16:28:15.959Z,4.83
2018-04-22T16:30:44.303Z,5.73
2018-04-22T16:33:12.512Z,6.20
2018-04-22T16:35:40.791Z,5.20
2018-04-22T16:38:09.023Z,6.07
2018-04-22T16:40:37.358Z,7.03
2018-04-22T16:43:05.575Z,10.43
2018-04-22T16:45:33.895Z,9.43
2018-04-22T16:48:02.186Z,7.30
2018-04-22T16:50:30.511Z,7.57
2018-04-22T16:52:59.115Z,7.00
2018-04-22T16:55:28.163Z,6.17
2018-04-22T16:57:56.539Z,6.80
2018-04-22T17:00:24.893Z,8.13
2018-04-22T17:02:53.113Z,8.20
2018-04-22T17:05:22.160Z,7.73
2018-04-22T17:07:50.439Z,6.43
2018-04-22T17:10:18.688Z,6.67
2018-04-22T17:12:48.479Z,7.13
2018-04-22T17:15:16.688Z,6.30
2018-04-22T17:17:44.926Z,6.43
2018-04-22T17:20:13.176Z,5.93
2018-04-22T17:22:41.427Z,6.90
2018-04-22T17:25:09.796Z,7.30
2018-04-22T17:27:38.146Z,7.10
2018-04-22T17:30:06.559Z,9.03
2018-04-22T17:32:34.783Z,5.37
2018-04-22T17:35:02.996Z,8.10
2018-04-22T17:37:32.067Z,5.20
2018-04-22T17:40:00.493Z,6.70
2018-04-22T17:42:28.760Z,8.13
2018-04-22T17:44:57.131Z,6.57
2018-04-22T17:47:26.118Z,7.47
2018-04-22T17:49:54.317Z,7.70
2018-04-22T17:52:22.955Z,11.00
2018-04-22T17:54:51.150Z,8.03
2018-04-22T17:57:20.148Z,6.77
2018-04-22T17:59:49.195Z,7.60
2018-04-22T18:02:17.697Z,6.37
2018-04-22T18:04:45.936Z,4.83
2018-04-22T18:07:14.164Z,6.30
2018-04-22T18:09:42.439Z,9.23
2018-04-22T18:12:10.824Z,5.27
2018-04-22T18:14:39.637Z,5.20
2018-04-22T18:17:07.894Z,7.77
2018-04-22T18:19:36.983Z,6.17
2018-04-22T18:22:05.245Z,6.57
2018-04-22T18:24:33.832Z,7.33
2018-04-22T18:27:02.334Z,7.97
2018-04-22T18:29:30.595Z,7.47
2018-04-22T18:31:58.996Z,8.63
2018-04-22T18:34:27.239Z,7.70
2018-04-22T18:36:55.704Z,5.83
2018-04-22T18:39:24.540Z,9.30
2018-04-22T18:41:53.797Z,8.20
2018-04-22T18:44:22.188Z,6.73
2018-04-22T18:46:51.334Z,6.17
2018-04-22T18:49:19.571Z,8.37
2018-04-22T18:51:47.912Z,8.30
2018-04-22T18:54:16.292Z,6.73
2018-04-22T18:56:47.470Z,7.23
2018-04-22T18:59:15.819Z,6.67
2018-04-22T19:01:44.187Z,7.27
2018-04-22T19:04:13.088Z,6.27
2018-04-22T19:06:41.423Z,6.93
2018-04-22T19:09:10.486Z,6.53
2018-04-22T19:11:38.997Z,8.73
2018-04-22T19:14:07.429Z,7.67
2018-04-22T19:16:35.769Z,6.57
2018-04-22T19:19:04.156Z,7.97
2018-04-22T19:21:32.526Z,6.90
2018-04-22T19:24:00.837Z,10.50
2018-04-22T19:26:30.136Z,8.40
2018-04-22T19:28:58.440Z,7.27
2018-04-22T19:31:27.482Z,10.00
2018-04-22T19:33:56.323Z,8.80
2018-04-22T19:36:25.702Z,8.20
2018-04-22T19:38:54.683Z,7.73
2018-04-22T19:41:24.165Z,8.23
2018-04-22T19:43:53.189Z,11.47
2018-04-22T19:46:21.701Z,7.83
2018-04-22T19:48:50.604Z,10.70
2018-04-22T19:51:19.113Z,7.43
2018-04-22T19:53:48.503Z,9.27
2018-04-22T19:56:17.011Z,13.30
2018-04-22T19:58:45.372Z,8.17
2018-04-22T20:01:14.059Z,10.87
2018-04-22T20:03:42.360Z,8.60
2018-04-22T20:06:10.955Z,9.47
2018-04-22T20:08:39.283Z,9.60
2018-04-22T20:11:08.742Z,7.70
2018-04-22T20:13:36.935Z,10.27
2018-04-22T20:16:05.185Z,7.47
2018-04-22T20:18:34.279Z,7.97
2018-04-22T20:21:02.856Z,9.03
2018-04-22T20:23:31.136Z,11.93
2018-04-22T20:26:02.250Z,9.30
2018-04-22T20:28:30.880Z,8.23
2018-04-22T20:30:59.087Z,8.60
2018-04-22T20:33:27.467Z,8.20
2018-04-22T20:35:56.146Z,11.03
2018-04-22T20:38:24.359Z,8.20
2018-04-22T20:40:52.997Z,10.60
2018-04-22T20:43:21.327Z,13.60
2018-04-22T20:45:50.152Z,8.93
2018-04-22T20:48:18.520Z,10.53
2018-04-22T20:50:47.143Z,9.60
2018-04-22T20:53:15.730Z,11.33
2018-04-22T20:55:44.096Z,9.17
2018-04-22T20:58:12.496Z,8.57
2018-04-22T21:00:41.456Z,10.90
2018-04-22T21:03:10.094Z,9.63
2018-04-22T21:05:39.309Z,12.97
2018-04-22T21:08:08.214Z,16.10
2018-04-22T21:10:36.788Z,12.33
2018-04-22T21:13:05.047Z,11.50
2018-04-22T21:15:33.776Z,9.80
2018-04-22T21:18:02.644Z,9.10
2018-04-22T21:20:30.912Z,9.67
2018-04-22T21:22:59.204Z,10.33
2018-04-22T21:25:27.484Z,10.53
2018-04-22T21:27:55.728Z,13.10
2018-04-22T21:30:23.948Z,10.23
2018-04-22T21:32:52.319Z,11.40
2018-04-22T21:35:20.587Z,9.27
2018-04-22T21:37:48.945Z,10.03
2018-04-22T21:40:17.519Z,9.57
2018-04-22T21:42:46.001Z,8.80
2018-04-22T21:45:14.292Z,10.80
2018-04-22T21:47:42.576Z,11.13
2018-04-22T21:50:10.954Z,11.60
2018-04-22T21:52:39.229Z,10.87
2018-04-22T21:55:07.774Z,9.97
2018-04-22T21:57:36.746Z,12.37
2018-04-22T22:00:04.983Z,10.10
2018-04-22T22:02:33.336Z,10.13
2018-04-22T22:05:01.587Z,10.57
2018-04-22T22:07:29.782Z,11.03
2018-04-22T22:09:58.220Z,12.37
2018-04-22T22:12:26.549Z,10.30
2018-04-22T22:14:54.905Z,10.77
2018-04-22T22:17:23.207Z,10.20
2018-04-22T22:19:51.509Z,10.37
2018-04-22T22:22:19.761Z,10.87
2018-04-22T22:24:48.142Z,11.00
2018-04-22T22:27:16.433Z,9.67
2018-04-22T22:29:44.804Z,10.47
2018-04-22T22:32:13.104Z,10.00
2018-04-22T22:34:41.340Z,9.50
2018-04-22T22:37:09.876Z,10.27
2018-04-22T22:39:38.610Z,9.43
2018-04-22T22:42:06.860Z,9.67
2018-04-22T22:44:35.243Z,10.23
2018-04-22T22:47:03.593Z,10.27
2018-04-22T22:49:31.847Z,9.97
2018-04-22T22:52:00.169Z,9.03
2018-04-22T22:54:28.469Z,10.60
2018-04-22T22:56:57.452Z,10.20
2018-04-22T22:59:28.316Z,11.00
2018-04-22T23:01:56.657Z,10.03
2018-04-22T23:04:24.885Z,11.63
2018-04-22T23:06:53.134Z,10.80
2018-04-22T23:09:21.446Z,9.53
2018-04-22T23:11:49.680Z,9.73
2018-04-22T23:14:18.653Z,9.90
2018-04-22T23:16:46.892Z,10.70
2018-04-22T23:19:15.107Z,10.10
2018-04-22T23:21:44.254Z,12.27
2018-04-22T23:24:12.576Z,10.17
2018-04-22T23:26:40.814Z,12.10
2018-04-22T23:29:09.041Z,10.67
2018-04-22T23:31:37.463Z,10.67
2018-04-22T23:34:05.804Z,10.43
2018-04-22T23:36:34.985Z,10.77
2018-04-22T23:39:03.280Z,12.13
2018-04-22T23:41:31.603Z,10.20
2018-04-22T23:43:59.886Z,10.73
2018-04-22T23:46:28.333Z,11.33
2018-04-22T23:48:57.367Z,9.70
2018-04-22T23:51:26.035Z,10.77
2018-04-22T23:53:54.363Z,11.37
2018-04-22T23:56:23.433Z,11.07
2018-04-22T23:58:51.644Z,10.47
